sensor_id;sensor_type;location;lat;lon;timestamp;P1;durP1;ratioP1;P2;durP2;ratioP2
27305;SDS011;14792;50.886;6.468;2024-03-08T00:01:31;42.03;;;21.40;;
27305;SDS011;14792;50.886;6.468;2024-03-08T00:04:33;37.33;;;21.12;;
27305;SDS011;14792;50.886;6.468;2024-03-08T00:07:35;34.63;;;21.35;;
27305;SDS011;14792;50.886;6.468;2024-03-08T00:10:38;40.90;;;21.95;;
27305;SDS011;14792;50.886;6.468;2024-03-08T00:13:40;37.30;;;21.82;;
27305;SDS011;14792;50.886;6.468;2024-03-08T00:16:41;39.20;;;22.70;;
27305;SDS011;14792;50.886;6.468;2024-03-08T00:19:43;38.63;;;22.93;;
27305;SDS011;14792;50.886;6.468;2024-03-08T00:22:45;39.95;;;23.75;;
27305;SDS011;14792;50.886;6.468;2024-03-08T00:25:46;39.42;;;23.15;;
27305;SDS011;14792;50.886;6.468;2024-03-08T00:28:48;38.88;;;24.50;;
27305;SDS011;14792;50.886;6.468;2024-03-08T00:31:49;41.40;;;24.18;;
27305;SDS011;14792;50.886;6.468;2024-03-08T00:34:51;42.13;;;25.48;;
27305;SDS011;14792;50.886;6.468;2024-03-08T00:37:53;43.90;;;25.30;;
27305;SDS011;14792;50.886;6.468;2024-03-08T00:40:57;44.73;;;26.27;;
27305;SDS011;14792;50.886;6.468;2024-03-08T00:43:56;46.48;;;26.60;;
27305;SDS011;14792;50.886;6.468;2024-03-08T00:46:57;46.80;;;25.62;;
27305;SDS011;14792;50.886;6.468;2024-03-08T00:49:59;44.93;;;25.10;;
27305;SDS011;14792;50.886;6.468;2024-03-08T00:53:01;54.25;;;26.05;;
27305;SDS011;14792;50.886;6.468;2024-03-08T00:56:02;46.68;;;25.50;;
27305;SDS011;14792;50.886;6.468;2024-03-08T00:59:04;40.08;;;24.20;;
27305;SDS011;14792;50.886;6.468;2024-03-08T01:02:06;47.13;;;25.68;;
27305;SDS011;14792;50.886;6.468;2024-03-08T01:05:07;41.10;;;23.77;;
27305;SDS011;14792;50.886;6.468;2024-03-08T01:08:09;51.45;;;26.30;;
27305;SDS011;14792;50.886;6.468;2024-03-08T01:11:12;45.40;;;25.00;;
27305;SDS011;14792;50.886;6.468;2024-03-08T01:14:12;42.40;;;24.47;;
27305;SDS011;14792;50.886;6.468;2024-03-08T01:17:14;40.67;;;24.02;;
27305;SDS011;14792;50.886;6.468;2024-03-08T01:20:15;41.45;;;24.85;;
27305;SDS011;14792;50.886;6.468;2024-03-08T01:23:17;45.28;;;25.08;;
27305;SDS011;14792;50.886;6.468;2024-03-08T01:26:18;41.45;;;24.90;;
27305;SDS011;14792;50.886;6.468;2024-03-08T01:29:20;44.48;;;25.57;;
27305;SDS011;14792;50.886;6.468;2024-03-08T01:32:21;39.23;;;24.65;;
27305;SDS011;14792;50.886;6.468;2024-03-08T01:35:23;47.53;;;26.12;;
27305;SDS011;14792;50.886;6.468;2024-03-08T01:38:25;48.15;;;25.65;;
27305;SDS011;14792;50.886;6.468;2024-03-08T01:41:26;55.63;;;25.88;;
27305;SDS011;14792;50.886;6.468;2024-03-08T01:44:28;43.87;;;25.08;;
27305;SDS011;14792;50.886;6.468;2024-03-08T01:47:29;43.90;;;25.57;;
27305;SDS011;14792;50.886;6.468;2024-03-08T01:50:31;53.73;;;25.75;;
27305;SDS011;14792;50.886;6.468;2024-03-08T01:53:33;41.23;;;23.98;;
27305;SDS011;14792;50.886;6.468;2024-03-08T01:56:34;40.00;;;23.20;;
27305;SDS011;14792;50.886;6.468;2024-03-08T01:59:36;53.17;;;24.23;;
27305;SDS011;14792;50.886;6.468;2024-03-08T02:02:37;49.70;;;26.15;;
27305;SDS011;14792;50.886;6.468;2024-03-08T02:05:40;50.20;;;26.05;;
27305;SDS011;14792;50.886;6.468;2024-03-08T02:08:41;49.63;;;26.20;;
27305;SDS011;14792;50.886;6.468;2024-03-08T02:11:45;45.40;;;25.77;;
27305;SDS011;14792;50.886;6.468;2024-03-08T02:14:46;44.42;;;26.52;;
27305;SDS011;14792;50.886;6.468;2024-03-08T02:17:48;49.35;;;26.82;;
27305;SDS011;14792;50.886;6.468;2024-03-08T02:20:50;54.05;;;27.22;;
27305;SDS011;14792;50.886;6.468;2024-03-08T02:23:54;50.95;;;27.52;;
27305;SDS011;14792;50.886;6.468;2024-03-08T02:26:55;49.70;;;25.95;;
27305;SDS011;14792;50.886;6.468;2024-03-08T02:29:57;46.08;;;26.02;;
27305;SDS011;14792;50.886;6.468;2024-03-08T02:32:59;52.25;;;26.07;;
27305;SDS011;14792;50.886;6.468;2024-03-08T02:36:00;49.50;;;26.25;;
27305;SDS011;14792;50.886;6.468;2024-03-08T02:39:04;49.13;;;25.32;;
27305;SDS011;14792;50.886;6.468;2024-03-08T02:42:05;52.05;;;27.37;;
27305;SDS011;14792;50.886;6.468;2024-03-08T02:45:07;47.13;;;26.07;;
27305;SDS011;14792;50.886;6.468;2024-03-08T02:48:08;51.28;;;26.73;;
27305;SDS011;14792;50.886;6.468;2024-03-08T02:51:10;44.83;;;26.27;;
27305;SDS011;14792;50.886;6.468;2024-03-08T02:54:12;51.45;;;26.52;;
27305;SDS011;14792;50.886;6.468;2024-03-08T02:57:13;49.40;;;26.82;;
27305;SDS011;14792;50.886;6.468;2024-03-08T03:00:15;48.55;;;25.65;;
27305;SDS011;14792;50.886;6.468;2024-03-08T03:03:16;51.58;;;26.85;;
27305;SDS011;14792;50.886;6.468;2024-03-08T03:06:18;49.08;;;26.73;;
27305;SDS011;14792;50.886;6.468;2024-03-08T03:09:20;56.37;;;27.62;;
27305;SDS011;14792;50.886;6.468;2024-03-08T03:12:21;48.10;;;28.25;;
27305;SDS011;14792;50.886;6.468;2024-03-08T03:15:23;52.53;;;26.93;;
27305;SDS011;14792;50.886;6.468;2024-03-08T03:18:24;51.42;;;27.80;;
27305;SDS011;14792;50.886;6.468;2024-03-08T03:21:27;53.95;;;27.52;;
27305;SDS011;14792;50.886;6.468;2024-03-08T03:24:27;46.88;;;27.67;;
27305;SDS011;14792;50.886;6.468;2024-03-08T03:27:29;52.90;;;27.77;;
27305;SDS011;14792;50.886;6.468;2024-03-08T03:30:31;53.33;;;28.30;;
27305;SDS011;14792;50.886;6.468;2024-03-08T03:33:35;46.02;;;27.20;;
27305;SDS011;14792;50.886;6.468;2024-03-08T03:36:36;47.95;;;26.73;;
27305;SDS011;14792;50.886;6.468;2024-03-08T03:39:38;53.30;;;28.35;;
27305;SDS011;14792;50.886;6.468;2024-03-08T03:42:51;52.83;;;27.48;;
27305;SDS011;14792;50.886;6.468;2024-03-08T03:45:53;48.92;;;27.32;;
27305;SDS011;14792;50.886;6.468;2024-03-08T03:48:55;56.30;;;27.30;;
27305;SDS011;14792;50.886;6.468;2024-03-08T03:51:56;51.68;;;27.82;;
27305;SDS011;14792;50.886;6.468;2024-03-08T03:54:58;56.25;;;27.82;;
27305;SDS011;14792;50.886;6.468;2024-03-08T03:57:59;49.15;;;27.45;;
27305;SDS011;14792;50.886;6.468;2024-03-08T04:01:01;47.70;;;27.90;;
27305;SDS011;14792;50.886;6.468;2024-03-08T04:04:03;58.00;;;28.12;;
27305;SDS011;14792;50.886;6.468;2024-03-08T04:07:04;51.65;;;27.17;;
27305;SDS011;14792;50.886;6.468;2024-03-08T04:10:06;60.33;;;29.82;;
27305;SDS011;14792;50.886;6.468;2024-03-08T04:13:07;52.62;;;28.45;;
27305;SDS011;14792;50.886;6.468;2024-03-08T04:16:09;52.43;;;28.70;;
27305;SDS011;14792;50.886;6.468;2024-03-08T04:19:11;57.35;;;29.15;;
27305;SDS011;14792;50.886;6.468;2024-03-08T04:22:12;60.98;;;29.15;;
27305;SDS011;14792;50.886;6.468;2024-03-08T04:25:14;60.50;;;29.63;;
27305;SDS011;14792;50.886;6.468;2024-03-08T04:28:15;48.13;;;27.67;;
27305;SDS011;14792;50.886;6.468;2024-03-08T04:31:17;59.08;;;29.95;;
27305;SDS011;14792;50.886;6.468;2024-03-08T04:34:19;53.85;;;30.70;;
27305;SDS011;14792;50.886;6.468;2024-03-08T04:37:20;57.88;;;28.60;;
27305;SDS011;14792;50.886;6.468;2024-03-08T04:40:24;62.03;;;30.05;;
27305;SDS011;14792;50.886;6.468;2024-03-08T04:43:26;59.73;;;30.02;;
27305;SDS011;14792;50.886;6.468;2024-03-08T04:46:28;56.13;;;29.25;;
27305;SDS011;14792;50.886;6.468;2024-03-08T04:49:29;53.78;;;29.30;;
27305;SDS011;14792;50.886;6.468;2024-03-08T04:52:31;56.02;;;28.95;;
27305;SDS011;14792;50.886;6.468;2024-03-08T04:55:32;61.37;;;28.70;;
27305;SDS011;14792;50.886;6.468;2024-03-08T04:58:37;57.30;;;29.25;;
27305;SDS011;14792;50.886;6.468;2024-03-08T05:01:38;63.83;;;29.72;;
27305;SDS011;14792;50.886;6.468;2024-03-08T05:04:40;53.85;;;28.02;;
27305;SDS011;14792;50.886;6.468;2024-03-08T05:07:41;48.63;;;28.12;;
27305;SDS011;14792;50.886;6.468;2024-03-08T05:10:43;62.75;;;30.27;;
27305;SDS011;14792;50.886;6.468;2024-03-08T05:13:45;64.27;;;29.05;;
27305;SDS011;14792;50.886;6.468;2024-03-08T05:16:46;53.38;;;28.60;;
27305;SDS011;14792;50.886;6.468;2024-03-08T05:19:48;62.17;;;28.75;;
27305;SDS011;14792;50.886;6.468;2024-03-08T05:22:49;62.62;;;29.82;;
27305;SDS011;14792;50.886;6.468;2024-03-08T05:25:51;55.40;;;29.52;;
27305;SDS011;14792;50.886;6.468;2024-03-08T05:28:53;55.35;;;29.40;;
27305;SDS011;14792;50.886;6.468;2024-03-08T05:31:54;62.85;;;28.95;;
27305;SDS011;14792;50.886;6.468;2024-03-08T05:34:56;78.75;;;31.77;;
27305;SDS011;14792;50.886;6.468;2024-03-08T05:37:57;63.38;;;30.05;;
27305;SDS011;14792;50.886;6.468;2024-03-08T05:40:59;68.83;;;30.50;;
27305;SDS011;14792;50.886;6.468;2024-03-08T05:44:01;61.95;;;30.70;;
27305;SDS011;14792;50.886;6.468;2024-03-08T05:47:02;66.62;;;30.05;;
27305;SDS011;14792;50.886;6.468;2024-03-08T05:50:04;60.35;;;29.63;;
27305;SDS011;14792;50.886;6.468;2024-03-08T05:53:06;60.12;;;29.42;;
27305;SDS011;14792;50.886;6.468;2024-03-08T05:56:07;60.10;;;29.07;;
27305;SDS011;14792;50.886;6.468;2024-03-08T05:59:09;59.35;;;29.98;;
27305;SDS011;14792;50.886;6.468;2024-03-08T06:02:10;55.50;;;29.40;;
27305;SDS011;14792;50.886;6.468;2024-03-08T06:05:12;55.45;;;29.27;;
27305;SDS011;14792;50.886;6.468;2024-03-08T06:08:13;51.98;;;27.80;;
27305;SDS011;14792;50.886;6.468;2024-03-08T06:11:15;58.00;;;29.30;;
27305;SDS011;14792;50.886;6.468;2024-03-08T06:14:17;51.60;;;28.07;;
27305;SDS011;14792;50.886;6.468;2024-03-08T06:17:18;53.87;;;28.62;;
27305;SDS011;14792;50.886;6.468;2024-03-08T06:20:20;52.60;;;27.60;;
27305;SDS011;14792;50.886;6.468;2024-03-08T06:23:22;55.28;;;29.77;;
27305;SDS011;14792;50.886;6.468;2024-03-08T06:26:26;57.20;;;28.80;;
27305;SDS011;14792;50.886;6.468;2024-03-08T06:29:25;50.10;;;28.98;;
27305;SDS011;14792;50.886;6.468;2024-03-08T06:32:26;52.98;;;28.92;;
27305;SDS011;14792;50.886;6.468;2024-03-08T06:35:28;52.45;;;28.20;;
27305;SDS011;14792;50.886;6.468;2024-03-08T06:38:29;56.55;;;29.10;;
27305;SDS011;14792;50.886;6.468;2024-03-08T06:41:31;52.08;;;28.25;;
27305;SDS011;14792;50.886;6.468;2024-03-08T06:44:33;62.25;;;29.82;;
27305;SDS011;14792;50.886;6.468;2024-03-08T06:47:34;51.02;;;27.32;;
27305;SDS011;14792;50.886;6.468;2024-03-08T06:50:36;60.15;;;28.50;;
27305;SDS011;14792;50.886;6.468;2024-03-08T06:53:37;55.95;;;29.02;;
27305;SDS011;14792;50.886;6.468;2024-03-08T06:56:41;50.67;;;27.48;;
27305;SDS011;14792;50.886;6.468;2024-03-08T06:59:43;57.78;;;28.47;;
27305;SDS011;14792;50.886;6.468;2024-03-08T07:02:45;57.83;;;29.00;;
27305;SDS011;14792;50.886;6.468;2024-03-08T07:05:46;59.05;;;29.20;;
27305;SDS011;14792;50.886;6.468;2024-03-08T07:08:48;53.50;;;29.02;;
27305;SDS011;14792;50.886;6.468;2024-03-08T07:11:50;53.23;;;28.52;;
27305;SDS011;14792;50.886;6.468;2024-03-08T07:14:51;53.85;;;28.12;;
27305;SDS011;14792;50.886;6.468;2024-03-08T07:17:53;57.70;;;29.67;;
27305;SDS011;14792;50.886;6.468;2024-03-08T07:20:54;58.42;;;28.90;;
27305;SDS011;14792;50.886;6.468;2024-03-08T07:23:56;52.10;;;29.00;;
27305;SDS011;14792;50.886;6.468;2024-03-08T07:27:00;60.00;;;29.57;;
27305;SDS011;14792;50.886;6.468;2024-03-08T07:30:04;53.05;;;27.20;;
27305;SDS011;14792;50.886;6.468;2024-03-08T07:33:03;52.60;;;28.80;;
27305;SDS011;14792;50.886;6.468;2024-03-08T07:36:05;52.83;;;28.27;;
27305;SDS011;14792;50.886;6.468;2024-03-08T07:39:06;52.78;;;28.70;;
27305;SDS011;14792;50.886;6.468;2024-03-08T07:42:08;53.30;;;27.13;;
27305;SDS011;14792;50.886;6.468;2024-03-08T07:45:10;54.55;;;28.40;;
27305;SDS011;14792;50.886;6.468;2024-03-08T07:48:11;53.28;;;27.30;;
27305;SDS011;14792;50.886;6.468;2024-03-08T07:51:15;55.52;;;26.15;;
27305;SDS011;14792;50.886;6.468;2024-03-08T07:54:14;50.63;;;27.25;;
27305;SDS011;14792;50.886;6.468;2024-03-08T07:57:16;54.33;;;27.35;;
27305;SDS011;14792;50.886;6.468;2024-03-08T08:00:17;52.48;;;27.35;;
27305;SDS011;14792;50.886;6.468;2024-03-08T08:03:19;51.18;;;26.33;;
27305;SDS011;14792;50.886;6.468;2024-03-08T08:06:21;54.53;;;26.33;;
27305;SDS011;14792;50.886;6.468;2024-03-08T08:09:22;49.88;;;26.45;;
27305;SDS011;14792;50.886;6.468;2024-03-08T08:12:24;48.70;;;26.37;;
27305;SDS011;14792;50.886;6.468;2024-03-08T08:15:25;51.88;;;26.07;;
27305;SDS011;14792;50.886;6.468;2024-03-08T08:18:27;52.48;;;27.45;;
27305;SDS011;14792;50.886;6.468;2024-03-08T08:21:29;48.58;;;25.40;;
27305;SDS011;14792;50.886;6.468;2024-03-08T08:24:30;49.40;;;26.05;;
27305;SDS011;14792;50.886;6.468;2024-03-08T08:27:32;51.13;;;25.25;;
27305;SDS011;14792;50.886;6.468;2024-03-08T08:30:33;56.50;;;25.85;;
27305;SDS011;14792;50.886;6.468;2024-03-08T08:33:35;48.52;;;25.27;;
27305;SDS011;14792;50.886;6.468;2024-03-08T08:36:37;46.42;;;25.60;;
27305;SDS011;14792;50.886;6.468;2024-03-08T08:39:38;45.88;;;24.98;;
27305;SDS011;14792;50.886;6.468;2024-03-08T08:42:40;40.92;;;24.98;;
27305;SDS011;14792;50.886;6.468;2024-03-08T08:45:41;40.70;;;23.38;;
27305;SDS011;14792;50.886;6.468;2024-03-08T08:48:43;39.90;;;22.70;;
27305;SDS011;14792;50.886;6.468;2024-03-08T08:51:48;39.50;;;23.60;;
27305;SDS011;14792;50.886;6.468;2024-03-08T08:54:46;41.00;;;23.65;;
27305;SDS011;14792;50.886;6.468;2024-03-08T08:57:48;41.25;;;24.67;;
27305;SDS011;14792;50.886;6.468;2024-03-08T09:00:49;39.27;;;22.82;;
27305;SDS011;14792;50.886;6.468;2024-03-08T09:03:51;36.70;;;24.23;;
27305;SDS011;14792;50.886;6.468;2024-03-08T09:06:52;40.63;;;24.18;;
27305;SDS011;14792;50.886;6.468;2024-03-08T09:09:54;38.83;;;22.85;;
27305;SDS011;14792;50.886;6.468;2024-03-08T09:12:56;43.75;;;23.38;;
27305;SDS011;14792;50.886;6.468;2024-03-08T09:15:57;41.13;;;22.45;;
27305;SDS011;14792;50.886;6.468;2024-03-08T09:18:59;40.35;;;23.02;;
27305;SDS011;14792;50.886;6.468;2024-03-08T09:22:00;35.08;;;22.17;;
27305;SDS011;14792;50.886;6.468;2024-03-08T09:25:02;38.13;;;22.48;;
27305;SDS011;14792;50.886;6.468;2024-03-08T09:28:03;40.25;;;23.45;;
27305;SDS011;14792;50.886;6.468;2024-03-08T09:31:05;38.10;;;22.25;;
27305;SDS011;14792;50.886;6.468;2024-03-08T09:34:07;37.63;;;22.15;;
27305;SDS011;14792;50.886;6.468;2024-03-08T09:37:08;35.58;;;22.75;;
27305;SDS011;14792;50.886;6.468;2024-03-08T09:40:10;35.38;;;21.33;;
27305;SDS011;14792;50.886;6.468;2024-03-08T09:43:11;35.73;;;22.45;;
27305;SDS011;14792;50.886;6.468;2024-03-08T09:46:13;38.75;;;23.67;;
27305;SDS011;14792;50.886;6.468;2024-03-08T09:49:15;39.03;;;21.23;;
27305;SDS011;14792;50.886;6.468;2024-03-08T09:52:16;33.92;;;20.80;;
27305;SDS011;14792;50.886;6.468;2024-03-08T09:55:18;42.60;;;21.75;;
27305;SDS011;14792;50.886;6.468;2024-03-08T09:58:19;38.10;;;21.50;;
27305;SDS011;14792;50.886;6.468;2024-03-08T10:01:36;37.28;;;21.00;;
27305;SDS011;14792;50.886;6.468;2024-03-08T10:04:38;35.92;;;20.35;;
27305;SDS011;14792;50.886;6.468;2024-03-08T10:07:39;32.78;;;19.73;;
27305;SDS011;14792;50.886;6.468;2024-03-08T10:10:40;26.85;;;17.77;;
27305;SDS011;14792;50.886;6.468;2024-03-08T10:13:42;27.50;;;17.73;;
27305;SDS011;14792;50.886;6.468;2024-03-08T10:16:44;27.45;;;17.75;;
27305;SDS011;14792;50.886;6.468;2024-03-08T10:19:51;28.83;;;17.30;;
27305;SDS011;14792;50.886;6.468;2024-03-08T10:22:53;26.52;;;17.67;;
27305;SDS011;14792;50.886;6.468;2024-03-08T10:25:54;24.40;;;16.75;;
27305;SDS011;14792;50.886;6.468;2024-03-08T10:28:56;32.67;;;17.12;;
27305;SDS011;14792;50.886;6.468;2024-03-08T10:31:57;30.80;;;17.17;;
27305;SDS011;14792;50.886;6.468;2024-03-08T10:34:59;27.85;;;16.97;;
27305;SDS011;14792;50.886;6.468;2024-03-08T10:38:00;27.45;;;16.73;;
27305;SDS011;14792;50.886;6.468;2024-03-08T10:41:03;29.80;;;17.73;;
27305;SDS011;14792;50.886;6.468;2024-03-08T10:47:17;25.68;;;15.70;;
27305;SDS011;14792;50.886;6.468;2024-03-08T10:50:27;23.87;;;14.68;;
27305;SDS011;14792;50.886;6.468;2024-03-08T10:53:29;24.12;;;15.40;;
27305;SDS011;14792;50.886;6.468;2024-03-08T10:56:30;25.60;;;16.27;;
27305;SDS011;14792;50.886;6.468;2024-03-08T10:59:32;28.40;;;16.37;;
27305;SDS011;14792;50.886;6.468;2024-03-08T11:02:34;28.83;;;16.20;;
27305;SDS011;14792;50.886;6.468;2024-03-08T11:05:38;31.73;;;16.42;;
27305;SDS011;14792;50.886;6.468;2024-03-08T11:08:40;30.05;;;16.67;;
27305;SDS011;14792;50.886;6.468;2024-03-08T11:11:41;26.93;;;15.25;;
27305;SDS011;14792;50.886;6.468;2024-03-08T11:14:43;30.77;;;15.75;;
27305;SDS011;14792;50.886;6.468;2024-03-08T11:17:45;27.75;;;15.60;;
27305;SDS011;14792;50.886;6.468;2024-03-08T11:20:46;32.42;;;15.93;;
27305;SDS011;14792;50.886;6.468;2024-03-08T11:24:06;31.55;;;14.18;;
27305;SDS011;14792;50.886;6.468;2024-03-08T11:27:04;26.45;;;14.55;;
27305;SDS011;14792;50.886;6.468;2024-03-08T11:30:06;26.33;;;15.95;;
27305;SDS011;14792;50.886;6.468;2024-03-08T11:33:13;21.70;;;14.13;;
27305;SDS011;14792;50.886;6.468;2024-03-08T11:36:21;20.75;;;13.85;;
27305;SDS011;14792;50.886;6.468;2024-03-08T11:39:22;25.05;;;11.85;;
27305;SDS011;14792;50.886;6.468;2024-03-08T11:42:23;29.07;;;15.45;;
27305;SDS011;14792;50.886;6.468;2024-03-08T11:45:25;30.25;;;15.90;;
27305;SDS011;14792;50.886;6.468;2024-03-08T11:48:27;23.10;;;14.58;;
27305;SDS011;14792;50.886;6.468;2024-03-08T11:51:28;31.77;;;17.12;;
27305;SDS011;14792;50.886;6.468;2024-03-08T11:54:30;28.07;;;15.05;;
27305;SDS011;14792;50.886;6.468;2024-03-08T11:57:31;31.57;;;14.85;;
27305;SDS011;14792;50.886;6.468;2024-03-08T12:00:33;27.30;;;15.40;;
27305;SDS011;14792;50.886;6.468;2024-03-08T12:03:38;22.00;;;13.05;;
27305;SDS011;14792;50.886;6.468;2024-03-08T12:06:39;30.32;;;14.33;;
27305;SDS011;14792;50.886;6.468;2024-03-08T12:09:40;23.75;;;13.43;;
27305;SDS011;14792;50.886;6.468;2024-03-08T12:12:43;20.32;;;13.55;;
27305;SDS011;14792;50.886;6.468;2024-03-08T12:15:43;20.05;;;13.30;;
27305;SDS011;14792;50.886;6.468;2024-03-08T12:18:45;20.68;;;12.47;;
27305;SDS011;14792;50.886;6.468;2024-03-08T12:21:47;28.32;;;12.88;;
27305;SDS011;14792;50.886;6.468;2024-03-08T12:25:02;18.32;;;12.33;;
27305;SDS011;14792;50.886;6.468;2024-03-08T12:27:50;26.85;;;13.32;;
27305;SDS011;14792;50.886;6.468;2024-03-08T12:30:51;24.47;;;13.25;;
27305;SDS011;14792;50.886;6.468;2024-03-08T12:33:54;23.85;;;13.72;;
27305;SDS011;14792;50.886;6.468;2024-03-08T12:36:55;22.80;;;13.15;;
27305;SDS011;14792;50.886;6.468;2024-03-08T12:39:56;21.87;;;12.23;;
27305;SDS011;14792;50.886;6.468;2024-03-08T12:42:58;25.80;;;13.15;;
27305;SDS011;14792;50.886;6.468;2024-03-08T12:45:59;19.10;;;12.30;;
27305;SDS011;14792;50.886;6.468;2024-03-08T12:49:01;22.77;;;12.60;;
27305;SDS011;14792;50.886;6.468;2024-03-08T12:52:03;24.80;;;12.85;;
27305;SDS011;14792;50.886;6.468;2024-03-08T12:55:04;19.27;;;12.43;;
27305;SDS011;14792;50.886;6.468;2024-03-08T12:58:06;20.70;;;12.60;;
27305;SDS011;14792;50.886;6.468;2024-03-08T13:01:07;22.17;;;13.68;;
27305;SDS011;14792;50.886;6.468;2024-03-08T13:04:09;20.00;;;12.95;;
27305;SDS011;14792;50.886;6.468;2024-03-08T13:07:10;16.65;;;11.85;;
27305;SDS011;14792;50.886;6.468;2024-03-08T13:10:13;22.52;;;13.55;;
27305;SDS011;14792;50.886;6.468;2024-03-08T13:13:14;18.95;;;13.43;;
27305;SDS011;14792;50.886;6.468;2024-03-08T13:16:15;18.65;;;12.90;;
27305;SDS011;14792;50.886;6.468;2024-03-08T13:19:17;17.98;;;13.32;;
27305;SDS011;14792;50.886;6.468;2024-03-08T13:22:18;18.10;;;13.08;;
27305;SDS011;14792;50.886;6.468;2024-03-08T13:25:20;20.62;;;12.65;;
27305;SDS011;14792;50.886;6.468;2024-03-08T13:28:22;20.15;;;13.13;;
27305;SDS011;14792;50.886;6.468;2024-03-08T13:31:23;20.52;;;13.25;;
27305;SDS011;14792;50.886;6.468;2024-03-08T13:34:25;19.23;;;12.18;;
27305;SDS011;14792;50.886;6.468;2024-03-08T13:37:26;18.98;;;13.13;;
27305;SDS011;14792;50.886;6.468;2024-03-08T13:40:28;23.75;;;13.00;;
27305;SDS011;14792;50.886;6.468;2024-03-08T13:43:30;18.40;;;12.88;;
27305;SDS011;14792;50.886;6.468;2024-03-08T13:46:31;24.10;;;13.10;;
27305;SDS011;14792;50.886;6.468;2024-03-08T13:49:33;17.27;;;12.03;;
27305;SDS011;14792;50.886;6.468;2024-03-08T13:52:34;22.45;;;12.53;;
27305;SDS011;14792;50.886;6.468;2024-03-08T13:55:36;16.27;;;11.93;;
27305;SDS011;14792;50.886;6.468;2024-03-08T13:58:38;22.22;;;12.35;;
27305;SDS011;14792;50.886;6.468;2024-03-08T14:01:39;21.90;;;12.10;;
27305;SDS011;14792;50.886;6.468;2024-03-08T14:04:41;17.35;;;11.60;;
27305;SDS011;14792;50.886;6.468;2024-03-08T14:07:42;19.07;;;12.10;;
27305;SDS011;14792;50.886;6.468;2024-03-08T14:10:44;19.42;;;11.78;;
27305;SDS011;14792;50.886;6.468;2024-03-08T14:13:45;16.82;;;11.85;;
27305;SDS011;14792;50.886;6.468;2024-03-08T14:16:47;16.55;;;11.33;;
27305;SDS011;14792;50.886;6.468;2024-03-08T14:19:49;21.87;;;12.30;;
27305;SDS011;14792;50.886;6.468;2024-03-08T14:22:56;16.87;;;11.05;;
27305;SDS011;14792;50.886;6.468;2024-03-08T14:25:58;20.48;;;11.38;;
27305;SDS011;14792;50.886;6.468;2024-03-08T14:28:59;16.75;;;11.73;;
27305;SDS011;14792;50.886;6.468;2024-03-08T14:32:01;18.00;;;12.73;;
27305;SDS011;14792;50.886;6.468;2024-03-08T14:35:02;18.27;;;12.50;;
27305;SDS011;14792;50.886;6.468;2024-03-08T14:38:04;19.23;;;12.05;;
27305;SDS011;14792;50.886;6.468;2024-03-08T14:41:06;18.62;;;12.58;;
27305;SDS011;14792;50.886;6.468;2024-03-08T14:44:07;17.05;;;11.53;;
27305;SDS011;14792;50.886;6.468;2024-03-08T14:47:09;23.25;;;11.95;;
27305;SDS011;14792;50.886;6.468;2024-03-08T14:50:10;19.65;;;11.90;;
27305;SDS011;14792;50.886;6.468;2024-03-08T14:53:12;19.85;;;11.88;;
27305;SDS011;14792;50.886;6.468;2024-03-08T14:56:13;16.50;;;11.18;;
27305;SDS011;14792;50.886;6.468;2024-03-08T14:59:18;15.35;;;11.15;;
27305;SDS011;14792;50.886;6.468;2024-03-08T15:02:19;17.20;;;11.93;;
27305;SDS011;14792;50.886;6.468;2024-03-08T15:05:21;22.27;;;11.85;;
27305;SDS011;14792;50.886;6.468;2024-03-08T15:08:23;19.07;;;12.20;;
27305;SDS011;14792;50.886;6.468;2024-03-08T15:11:24;18.65;;;11.03;;
27305;SDS011;14792;50.886;6.468;2024-03-08T15:14:26;16.93;;;11.73;;
27305;SDS011;14792;50.886;6.468;2024-03-08T15:17:27;17.65;;;11.73;;
27305;SDS011;14792;50.886;6.468;2024-03-08T15:20:29;18.48;;;11.57;;
27305;SDS011;14792;50.886;6.468;2024-03-08T15:23:31;19.17;;;11.85;;
27305;SDS011;14792;50.886;6.468;2024-03-08T15:26:32;16.20;;;11.78;;
27305;SDS011;14792;50.886;6.468;2024-03-08T15:29:34;20.08;;;12.43;;
27305;SDS011;14792;50.886;6.468;2024-03-08T15:32:35;18.57;;;11.70;;
27305;SDS011;14792;50.886;6.468;2024-03-08T15:35:37;16.55;;;11.68;;
27305;SDS011;14792;50.886;6.468;2024-03-08T15:38:39;23.18;;;12.25;;
27305;SDS011;14792;50.886;6.468;2024-03-08T15:41:40;13.68;;;10.70;;
27305;SDS011;14792;50.886;6.468;2024-03-08T15:44:42;17.05;;;11.83;;
27305;SDS011;14792;50.886;6.468;2024-03-08T15:47:43;18.12;;;11.55;;
27305;SDS011;14792;50.886;6.468;2024-03-08T15:50:45;18.55;;;11.97;;
27305;SDS011;14792;50.886;6.468;2024-03-08T15:53:47;19.10;;;11.28;;
27305;SDS011;14792;50.886;6.468;2024-03-08T15:56:48;17.48;;;12.58;;
27305;SDS011;14792;50.886;6.468;2024-03-08T15:59:50;15.43;;;11.18;;
27305;SDS011;14792;50.886;6.468;2024-03-08T16:02:51;17.17;;;11.83;;
27305;SDS011;14792;50.886;6.468;2024-03-08T16:05:53;16.65;;;11.50;;
27305;SDS011;14792;50.886;6.468;2024-03-08T16:08:54;22.82;;;11.70;;
27305;SDS011;14792;50.886;6.468;2024-03-08T16:11:59;20.65;;;12.43;;
27305;SDS011;14792;50.886;6.468;2024-03-08T16:15:00;19.73;;;11.97;;
27305;SDS011;14792;50.886;6.468;2024-03-08T16:18:02;17.60;;;11.25;;
27305;SDS011;14792;50.886;6.468;2024-03-08T16:21:04;22.70;;;12.03;;
27305;SDS011;14792;50.886;6.468;2024-03-08T16:24:05;17.48;;;11.93;;
27305;SDS011;14792;50.886;6.468;2024-03-08T16:27:07;24.63;;;12.07;;
27305;SDS011;14792;50.886;6.468;2024-03-08T16:30:08;22.17;;;12.20;;
27305;SDS011;14792;50.886;6.468;2024-03-08T16:33:10;22.58;;;11.73;;
27305;SDS011;14792;50.886;6.468;2024-03-08T16:36:11;18.40;;;11.70;;
27305;SDS011;14792;50.886;6.468;2024-03-08T16:39:13;18.05;;;11.43;;
27305;SDS011;14792;50.886;6.468;2024-03-08T16:42:15;22.22;;;12.15;;
27305;SDS011;14792;50.886;6.468;2024-03-08T16:45:16;23.40;;;12.45;;
27305;SDS011;14792;50.886;6.468;2024-03-08T16:48:18;20.40;;;11.55;;
27305;SDS011;14792;50.886;6.468;2024-03-08T16:51:19;17.40;;;11.43;;
27305;SDS011;14792;50.886;6.468;2024-03-08T16:54:21;25.40;;;13.03;;
27305;SDS011;14792;50.886;6.468;2024-03-08T16:57:23;22.60;;;11.70;;
27305;SDS011;14792;50.886;6.468;2024-03-08T17:00:24;18.57;;;12.23;;
27305;SDS011;14792;50.886;6.468;2024-03-08T17:03:28;20.15;;;12.00;;
27305;SDS011;14792;50.886;6.468;2024-03-08T17:06:30;18.77;;;11.88;;
27305;SDS011;14792;50.886;6.468;2024-03-08T17:09:32;21.75;;;12.82;;
27305;SDS011;14792;50.886;6.468;2024-03-08T17:12:34;22.55;;;12.73;;
27305;SDS011;14792;50.886;6.468;2024-03-08T17:15:35;19.62;;;12.65;;
27305;SDS011;14792;50.886;6.468;2024-03-08T17:18:36;21.45;;;12.30;;
27305;SDS011;14792;50.886;6.468;2024-03-08T17:21:38;21.93;;;13.00;;
27305;SDS011;14792;50.886;6.468;2024-03-08T17:24:40;21.23;;;12.20;;
27305;SDS011;14792;50.886;6.468;2024-03-08T17:27:44;19.80;;;12.70;;
27305;SDS011;14792;50.886;6.468;2024-03-08T17:30:45;25.02;;;13.15;;
27305;SDS011;14792;50.886;6.468;2024-03-08T17:33:47;23.32;;;13.22;;
27305;SDS011;14792;50.886;6.468;2024-03-08T17:36:49;25.37;;;12.30;;
27305;SDS011;14792;50.886;6.468;2024-03-08T17:39:50;24.95;;;12.37;;
27305;SDS011;14792;50.886;6.468;2024-03-08T17:42:52;24.55;;;12.60;;
27305;SDS011;14792;50.886;6.468;2024-03-08T17:45:53;28.20;;;13.18;;